sim
Sign-in with your pilot id or email,
or register
Callsign
Passwort

Schedule Details

Flight Number: DLH2520 (2)
Departure: Munich Airport (EDDM) at 13:15
Arrival: Glasgow International Airport (EGPF) at 15:40
Route: Lufthansa Passenger Schedule. Enter filed route here before submitting Pirep.

Weather Information
Getting current METAR information for EDDM 192050Z VRB01KT CAVOK 11/10 Q1018 NOSIG
Getting current METAR information for EGPF 192050Z AUTO 06006KT 9999 NCD 10/08 Q1026

Schedule Frequency

Route Map